sensor_id;sensor_type;location;lat;lon;timestamp;P1;durP1;ratioP1;P2;durP2;ratioP2
42450;SDS011;28080;51.138;17.170;2024-02-15T00:04:45;43.10;;;21.40;;
42450;SDS011;28080;51.138;17.170;2024-02-15T00:15:11;45.90;;;20.90;;
42450;SDS011;28080;51.138;17.170;2024-02-15T00:25:36;38.30;;;18.80;;
42450;SDS011;28080;51.138;17.170;2024-02-15T00:36:02;31.10;;;16.80;;
42450;SDS011;28080;51.138;17.170;2024-02-15T00:46:27;36.60;;;17.10;;
42450;SDS011;28080;51.138;17.170;2024-02-15T00:56:52;30.20;;;16.10;;
42450;SDS011;28080;51.138;17.170;2024-02-15T01:07:10;31.50;;;15.40;;
42450;SDS011;28080;51.138;17.170;2024-02-15T01:17:45;23.70;;;13.70;;
42450;SDS011;28080;51.138;17.170;2024-02-15T01:28:10;21.50;;;12.60;;
42450;SDS011;28080;51.138;17.170;2024-02-15T01:38:35;26.70;;;14.10;;
42450;SDS011;28080;51.138;17.170;2024-02-15T01:49:00;24.40;;;13.60;;
42450;SDS011;28080;51.138;17.170;2024-02-15T01:59:27;27.40;;;14.70;;
42450;SDS011;28080;51.138;17.170;2024-02-15T02:09:47;21.70;;;12.20;;
42450;SDS011;28080;51.138;17.170;2024-02-15T02:20:13;23.20;;;13.30;;
42450;SDS011;28080;51.138;17.170;2024-02-15T02:30:31;30.90;;;13.60;;
42450;SDS011;28080;51.138;17.170;2024-02-15T02:40:56;21.30;;;11.20;;
42450;SDS011;28080;51.138;17.170;2024-02-15T02:51:22;23.00;;;12.00;;
42450;SDS011;28080;51.138;17.170;2024-02-15T03:01:47;24.60;;;11.90;;
42450;SDS011;28080;51.138;17.170;2024-02-15T03:12:13;19.50;;;11.40;;
42450;SDS011;28080;51.138;17.170;2024-02-15T03:22:39;18.80;;;11.30;;
42450;SDS011;28080;51.138;17.170;2024-02-15T03:33:05;21.40;;;11.20;;
42450;SDS011;28080;51.138;17.170;2024-02-15T03:43:30;25.30;;;12.00;;
42450;SDS011;28080;51.138;17.170;2024-02-15T03:53:54;17.20;;;10.30;;
42450;SDS011;28080;51.138;17.170;2024-02-15T04:04:20;16.10;;;10.80;;
42450;SDS011;28080;51.138;17.170;2024-02-15T04:14:46;19.40;;;10.20;;
42450;SDS011;28080;51.138;17.170;2024-02-15T04:25:12;19.40;;;11.60;;
42450;SDS011;28080;51.138;17.170;2024-02-15T04:35:39;16.70;;;9.70;;
42450;SDS011;28080;51.138;17.170;2024-02-15T04:46:05;14.90;;;9.10;;
42450;SDS011;28080;51.138;17.170;2024-02-15T04:56:31;16.80;;;10.10;;
42450;SDS011;28080;51.138;17.170;2024-02-15T05:06:58;15.80;;;9.50;;
42450;SDS011;28080;51.138;17.170;2024-02-15T05:17:23;19.70;;;11.20;;
42450;SDS011;28080;51.138;17.170;2024-02-15T05:27:50;22.50;;;13.10;;
42450;SDS011;28080;51.138;17.170;2024-02-15T05:38:16;14.90;;;11.00;;
42450;SDS011;28080;51.138;17.170;2024-02-15T05:48:42;14.40;;;10.00;;
42450;SDS011;28080;51.138;17.170;2024-02-15T05:59:07;19.30;;;11.00;;
42450;SDS011;28080;51.138;17.170;2024-02-15T06:09:33;28.90;;;13.10;;
42450;SDS011;28080;51.138;17.170;2024-02-15T06:19:59;19.70;;;12.00;;
42450;SDS011;28080;51.138;17.170;2024-02-15T06:30:24;19.60;;;12.50;;
42450;SDS011;28080;51.138;17.170;2024-02-15T06:41:05;17.70;;;12.80;;
42450;SDS011;28080;51.138;17.170;2024-02-15T06:51:30;17.10;;;11.60;;
42450;SDS011;28080;51.138;17.170;2024-02-15T07:01:56;18.40;;;11.70;;
42450;SDS011;28080;51.138;17.170;2024-02-15T07:12:21;16.10;;;12.20;;
42450;SDS011;28080;51.138;17.170;2024-02-15T07:22:47;17.90;;;12.30;;
42450;SDS011;28080;51.138;17.170;2024-02-15T07:33:12;17.20;;;11.50;;
42450;SDS011;28080;51.138;17.170;2024-02-15T07:43:39;20.60;;;12.00;;
42450;SDS011;28080;51.138;17.170;2024-02-15T07:53:59;16.70;;;11.60;;
42450;SDS011;28080;51.138;17.170;2024-02-15T08:04:24;17.10;;;11.60;;
42450;SDS011;28080;51.138;17.170;2024-02-15T08:14:50;22.90;;;13.30;;
42450;SDS011;28080;51.138;17.170;2024-02-15T08:25:14;18.90;;;13.10;;
42450;SDS011;28080;51.138;17.170;2024-02-15T08:35:40;20.60;;;14.30;;
42450;SDS011;28080;51.138;17.170;2024-02-15T08:46:05;19.20;;;12.90;;
42450;SDS011;28080;51.138;17.170;2024-02-15T08:56:33;16.70;;;11.80;;
42450;SDS011;28080;51.138;17.170;2024-02-15T09:06:59;19.50;;;11.90;;
42450;SDS011;28080;51.138;17.170;2024-02-15T09:17:26;16.50;;;11.60;;
42450;SDS011;28080;51.138;17.170;2024-02-15T09:27:54;17.40;;;10.90;;
42450;SDS011;28080;51.138;17.170;2024-02-15T09:38:20;20.40;;;12.10;;
42450;SDS011;28080;51.138;17.170;2024-02-15T09:48:40;16.90;;;11.00;;
42450;SDS011;28080;51.138;17.170;2024-02-15T09:59:07;16.10;;;10.50;;
42450;SDS011;28080;51.138;17.170;2024-02-15T10:09:32;21.10;;;11.10;;
42450;SDS011;28080;51.138;17.170;2024-02-15T10:20:04;24.20;;;12.50;;
42450;SDS011;28080;51.138;17.170;2024-02-15T10:30:33;18.20;;;11.40;;
42450;SDS011;28080;51.138;17.170;2024-02-15T10:41:02;20.80;;;10.50;;
42450;SDS011;28080;51.138;17.170;2024-02-15T10:51:28;14.50;;;9.30;;
42450;SDS011;28080;51.138;17.170;2024-02-15T11:01:57;13.40;;;8.40;;
42450;SDS011;28080;51.138;17.170;2024-02-15T11:12:26;13.30;;;7.10;;
42450;SDS011;28080;51.138;17.170;2024-02-15T11:22:57;12.70;;;7.70;;
42450;SDS011;28080;51.138;17.170;2024-02-15T11:33:27;14.00;;;7.20;;
42450;SDS011;28080;51.138;17.170;2024-02-15T11:43:47;11.20;;;6.20;;
42450;SDS011;28080;51.138;17.170;2024-02-15T11:54:19;11.00;;;7.20;;
42450;SDS011;28080;51.138;17.170;2024-02-15T12:04:38;10.80;;;7.50;;
42450;SDS011;28080;51.138;17.170;2024-02-15T12:15:23;12.30;;;6.40;;
42450;SDS011;28080;51.138;17.170;2024-02-15T12:26:06;9.20;;;5.00;;
42450;SDS011;28080;51.138;17.170;2024-02-15T12:36:31;6.90;;;2.90;;
42450;SDS011;28080;51.138;17.170;2024-02-15T12:46:58;6.30;;;3.90;;
42450;SDS011;28080;51.138;17.170;2024-02-15T12:57:17;14.10;;;5.90;;
42450;SDS011;28080;51.138;17.170;2024-02-15T13:07:43;6.40;;;3.10;;
42450;SDS011;28080;51.138;17.170;2024-02-15T13:18:09;4.00;;;2.50;;
42450;SDS011;28080;51.138;17.170;2024-02-15T13:28:35;19.20;;;5.50;;
42450;SDS011;28080;51.138;17.170;2024-02-15T13:39:01;9.20;;;4.00;;
42450;SDS011;28080;51.138;17.170;2024-02-15T13:49:27;11.60;;;4.40;;
42450;SDS011;28080;51.138;17.170;2024-02-15T13:59:53;7.40;;;4.20;;
42450;SDS011;28080;51.138;17.170;2024-02-15T14:10:20;15.40;;;7.50;;
42450;SDS011;28080;51.138;17.170;2024-02-15T14:20:46;10.30;;;5.40;;
42450;SDS011;28080;51.138;17.170;2024-02-15T14:31:12;6.00;;;4.50;;
42450;SDS011;28080;51.138;17.170;2024-02-15T14:42:01;7.70;;;5.10;;
42450;SDS011;28080;51.138;17.170;2024-02-15T14:52:26;7.50;;;4.60;;
42450;SDS011;28080;51.138;17.170;2024-02-15T15:02:53;8.40;;;4.40;;
42450;SDS011;28080;51.138;17.170;2024-02-15T15:13:19;10.30;;;5.10;;
42450;SDS011;28080;51.138;17.170;2024-02-15T15:23:45;6.50;;;4.10;;
42450;SDS011;28080;51.138;17.170;2024-02-15T15:34:10;8.30;;;5.00;;
42450;SDS011;28080;51.138;17.170;2024-02-15T15:44:36;9.20;;;5.10;;
42450;SDS011;28080;51.138;17.170;2024-02-15T15:55:01;8.80;;;6.20;;
42450;SDS011;28080;51.138;17.170;2024-02-15T16:05:27;7.70;;;5.30;;
42450;SDS011;28080;51.138;17.170;2024-02-15T16:15:52;23.30;;;9.80;;
42450;SDS011;28080;51.138;17.170;2024-02-15T16:26:18;19.50;;;11.30;;
42450;SDS011;28080;51.138;17.170;2024-02-15T16:36:44;13.80;;;8.20;;
42450;SDS011;28080;51.138;17.170;2024-02-15T16:47:10;14.50;;;7.50;;
42450;SDS011;28080;51.138;17.170;2024-02-15T16:57:36;13.10;;;8.50;;
42450;SDS011;28080;51.138;17.170;2024-02-15T17:07:55;17.30;;;9.40;;
42450;SDS011;28080;51.138;17.170;2024-02-15T17:18:20;19.60;;;11.20;;
42450;SDS011;28080;51.138;17.170;2024-02-15T17:28:46;20.90;;;12.70;;
42450;SDS011;28080;51.138;17.170;2024-02-15T17:39:11;22.20;;;12.50;;
42450;SDS011;28080;51.138;17.170;2024-02-15T17:49:31;29.70;;;15.70;;
42450;SDS011;28080;51.138;17.170;2024-02-15T17:59:56;26.30;;;15.00;;
42450;SDS011;28080;51.138;17.170;2024-02-15T18:10:21;26.20;;;15.60;;
42450;SDS011;28080;51.138;17.170;2024-02-15T18:31:04;37.70;;;23.30;;
42450;SDS011;28080;51.138;17.170;2024-02-15T18:41:30;38.00;;;22.40;;
42450;SDS011;28080;51.138;17.170;2024-02-15T18:51:56;33.40;;;19.30;;
42450;SDS011;28080;51.138;17.170;2024-02-15T19:02:21;29.60;;;16.80;;
42450;SDS011;28080;51.138;17.170;2024-02-15T19:12:48;37.40;;;20.80;;
42450;SDS011;28080;51.138;17.170;2024-02-15T19:23:14;41.90;;;22.30;;
42450;SDS011;28080;51.138;17.170;2024-02-15T19:33:41;34.50;;;20.30;;
42450;SDS011;28080;51.138;17.170;2024-02-15T19:44:06;32.60;;;20.30;;
42450;SDS011;28080;51.138;17.170;2024-02-15T19:54:34;36.20;;;21.40;;
42450;SDS011;28080;51.138;17.170;2024-02-15T20:04:59;44.10;;;27.40;;
42450;SDS011;28080;51.138;17.170;2024-02-15T20:15:28;42.50;;;24.70;;
42450;SDS011;28080;51.138;17.170;2024-02-15T20:25:53;57.80;;;32.30;;
42450;SDS011;28080;51.138;17.170;2024-02-15T20:36:18;40.90;;;23.30;;
42450;SDS011;28080;51.138;17.170;2024-02-15T20:46:44;56.20;;;26.20;;
42450;SDS011;28080;51.138;17.170;2024-02-15T20:57:09;75.40;;;35.00;;
42450;SDS011;28080;51.138;17.170;2024-02-15T21:18:02;65.50;;;29.20;;
42450;SDS011;28080;51.138;17.170;2024-02-15T21:28:28;54.20;;;27.60;;
42450;SDS011;28080;51.138;17.170;2024-02-15T21:38:53;44.50;;;20.20;;
42450;SDS011;28080;51.138;17.170;2024-02-15T21:49:18;41.70;;;20.70;;
42450;SDS011;28080;51.138;17.170;2024-02-15T21:59:43;40.50;;;19.70;;
42450;SDS011;28080;51.138;17.170;2024-02-15T22:10:09;29.30;;;15.90;;
42450;SDS011;28080;51.138;17.170;2024-02-15T22:20:28;33.90;;;16.70;;
42450;SDS011;28080;51.138;17.170;2024-02-15T22:30:53;32.50;;;15.60;;
42450;SDS011;28080;51.138;17.170;2024-02-15T22:41:11;31.80;;;14.50;;
42450;SDS011;28080;51.138;17.170;2024-02-15T22:51:36;35.50;;;17.00;;
42450;SDS011;28080;51.138;17.170;2024-02-15T23:02:02;34.70;;;17.20;;
42450;SDS011;28080;51.138;17.170;2024-02-15T23:12:28;28.00;;;14.90;;
42450;SDS011;28080;51.138;17.170;2024-02-15T23:22:53;29.60;;;15.00;;
42450;SDS011;28080;51.138;17.170;2024-02-15T23:33:18;27.50;;;16.40;;
42450;SDS011;28080;51.138;17.170;2024-02-15T23:43:44;31.50;;;16.40;;
42450;SDS011;28080;51.138;17.170;2024-02-15T23:54:03;31.20;;;16.60;;
